Time;durP1;ratioP1;P1;durP2;ratioP2;P2;SDS_P1;SDS_P2;PMS_P1;PMS_P2;Temp;Humidity;BMP_temperature;BMP_pressure;BME280_temperature;BME280_humidity;BME280_pressure;Samples;Min_cycle;Max_cycle;Signal;HPM_P1;HPM_P2
2021/11/01 00:01:11;;;;;;;2.05;1.42;;;9.70;99.90;;;;;;5068413;28;20048;-83
2021/11/01 00:03:37;;;;;;;8.57;0.88;;;9.70;99.90;;;;;;5049484;28;20583;-83
2021/11/01 00:06:05;;;;;;;0.75;0.75;;;9.70;99.90;;;;;;5069193;28;20036;-83
2021/11/01 00:08:31;;;;;;;1.92;1.17;;;9.70;99.90;;;;;;5060542;28;20044;-83
2021/11/01 00:10:57;;;;;;;5.22;1.83;;;9.70;99.90;;;;;;5069928;28;20543;-83
2021/11/01 00:13:22;;;;;;;2.70;1.95;;;9.70;99.90;;;;;;5042470;28;20044;-84
2021/11/01 00:15:48;;;;;;;1.20;1.13;;;9.70;99.90;;;;;;5054461;28;20054;-83
2021/11/01 00:18:15;;;;;;;2.58;1.02;;;9.70;99.90;;;;;;5070200;28;20050;-82
2021/11/01 00:20:40;;;;;;;4.85;0.88;;;9.70;99.90;;;;;;5053711;28;20039;-84
2021/11/01 00:23:06;;;;;;;1.50;1.25;;;9.70;99.90;;;;;;5066722;28;20037;-82
2021/11/01 00:25:32;;;;;;;4.38;1.33;;;9.70;99.90;;;;;;5060304;28;20039;-82
2021/11/01 00:27:59;;;;;;;2.13;1.52;;;9.70;99.90;;;;;;5054251;28;20044;-81
2021/11/01 00:30:25;;;;;;;1.60;1.50;;;9.60;99.90;;;;;;5071911;28;20036;-83
2021/11/01 00:32:51;;;;;;;3.63;2.45;;;9.60;99.90;;;;;;5069727;28;20470;-82
2021/11/01 00:35:16;;;;;;;4.30;1.88;;;9.60;99.90;;;;;;5069152;28;20048;-83
2021/11/01 00:37:42;;;;;;;3.33;1.98;;;9.60;99.90;;;;;;5061929;28;20059;-82
2021/11/01 00:40:09;;;;;;;2.17;1.15;;;9.50;99.90;;;;;;5065077;28;20040;-82
2021/11/01 00:42:35;;;;;;;1.60;1.50;;;9.50;99.90;;;;;;5053847;28;20032;-82
2021/11/01 00:45:01;;;;;;;0.85;0.85;;;9.50;99.90;;;;;;5072065;28;20369;-83
2021/11/01 00:47:27;;;;;;;2.60;0.93;;;9.50;99.90;;;;;;5066813;28;20048;-83
2021/11/01 00:49:53;;;;;;;1.33;1.23;;;9.50;99.90;;;;;;5067198;28;20379;-82
2021/11/01 00:52:30;;;;;;;4.32;1.52;;;9.50;99.90;;;;;;5065078;28;20048;-82
2021/11/01 00:55:02;;;;;;;11.93;1.83;;;9.50;99.90;;;;;;5071443;28;20036;-82
2021/11/01 00:57:29;;;;;;;1.20;1.10;;;9.40;99.90;;;;;;5068346;28;20043;-81
2021/11/01 00:59:56;;;;;;;7.25;2.13;;;9.40;99.90;;;;;;5054992;28;20469;-81
2021/11/01 01:02:22;;;;;;;12.55;2.17;;;9.40;99.90;;;;;;5071817;28;20051;-83
2021/11/01 01:04:48;;;;;;;0.80;0.80;;;9.50;99.90;;;;;;5046019;28;20401;-83
2021/11/01 01:07:14;;;;;;;11.20;1.20;;;9.50;99.90;;;;;;5066495;28;20049;-82
2021/11/01 01:09:40;;;;;;;4.90;1.50;;;9.50;99.90;;;;;;5059792;28;20049;-81
2021/11/01 01:12:07;;;;;;;1.25;1.15;;;9.50;99.90;;;;;;5061581;28;20111;-82
2021/11/01 01:14:40;;;;;;;0.88;0.82;;;9.50;99.90;;;;;;5064972;28;20090;-82
2021/11/01 01:17:06;;;;;;;5.97;1.75;;;9.50;99.90;;;;;;5067380;28;20029;-81
2021/11/01 01:19:43;;;;;;;8.88;2.28;;;9.50;99.90;;;;;;5071435;28;20094;-81
2021/11/01 01:24:37;;;;;;;1.33;1.02;;;9.50;99.90;;;;;;5076775;28;20152;-82
2021/11/01 01:27:03;;;;;;;3.60;1.38;;;9.50;99.90;;;;;;5056298;28;20521;-80
2021/11/01 01:29:29;;;;;;;1.63;1.52;;;9.50;99.90;;;;;;5053440;28;20494;-83
2021/11/01 01:31:55;;;;;;;2.95;1.60;;;9.50;99.90;;;;;;5044490;28;20052;-81
2021/11/01 01:34:20;;;;;;;11.65;3.03;;;9.40;99.90;;;;;;5063813;28;20053;-81
2021/11/01 01:36:46;;;;;;;0.50;0.50;;;9.40;99.90;;;;;;5042219;28;20457;-81
2021/11/01 01:39:13;;;;;;;2.38;2.13;;;9.40;99.90;;;;;;5063155;28;20446;-80
2021/11/01 01:41:44;;;;;;;1.05;0.80;;;9.40;99.90;;;;;;5053120;28;20502;-81
2021/11/01 01:44:10;;;;;;;0.68;0.68;;;9.30;99.90;;;;;;5070406;28;20524;-81
2021/11/01 01:46:36;;;;;;;2.13;1.65;;;9.40;99.90;;;;;;5053301;28;20420;-84
2021/11/01 01:49:02;;;;;;;1.65;1.55;;;9.30;99.90;;;;;;5063183;28;20451;-81
2021/11/01 01:51:30;;;;;;;1.08;0.98;;;9.30;99.90;;;;;;5070568;28;20082;-83
2021/11/01 01:53:57;;;;;;;5.82;1.40;;;9.20;99.90;;;;;;5054622;28;20393;-83
2021/11/01 01:56:25;;;;;;;2.55;1.63;;;9.20;99.90;;;;;;5069184;28;20037;-82
2021/11/01 01:58:56;;;;;;;0.73;0.73;;;9.20;99.90;;;;;;5070451;28;20430;-83
2021/11/01 02:01:25;;;;;;;1.33;1.23;;;9.20;99.90;;;;;;5073059;28;20055;-80
2021/11/01 02:03:52;;;;;;;1.52;1.17;;;9.20;99.90;;;;;;5065637;28;20032;-80
2021/11/01 02:06:25;;;;;;;1.42;0.88;;;9.20;99.90;;;;;;5064815;28;20450;-84
2021/11/01 02:09:21;;;;;;;1.05;1.00;;;9.20;99.90;;;;;;5065503;28;20159;-81
2021/11/01 02:11:49;;;;;;;1.02;0.90;;;9.20;99.90;;;;;;5068096;28;20056;-81
2021/11/01 02:14:18;;;;;;;7.88;1.88;;;9.20;99.90;;;;;;5064494;28;20041;-82
2021/11/01 02:16:48;;;;;;;1.02;0.93;;;9.20;99.90;;;;;;5066496;28;20507;-84
2021/11/01 02:19:17;;;;;;;2.35;1.23;;;9.10;99.90;;;;;;5052502;28;20047;-83
2021/11/01 02:21:52;;;;;;;2.22;1.38;;;9.10;99.90;;;;;;5062622;28;20040;-80
2021/11/01 02:24:39;;;;;;;8.20;1.92;;;9.10;99.90;;;;;;5053791;28;20052;-80
2021/11/01 02:27:09;;;;;;;1.73;1.52;;;9.10;99.90;;;;;;5058046;28;20123;-82
2021/11/01 02:29:35;;;;;;;1.95;1.08;;;9.10;99.90;;;;;;5048569;28;20052;-81
2021/11/01 02:32:02;;;;;;;7.47;2.75;;;9.10;99.90;;;;;;5071181;28;20051;-81
2021/11/01 02:34:28;;;;;;;9.68;1.83;;;9.10;99.90;;;;;;5065444;28;20048;-81
2021/11/01 02:36:54;;;;;;;3.50;2.25;;;9.00;99.90;;;;;;5044737;28;20033;-83
2021/11/01 02:39:19;;;;;;;0.60;0.60;;;9.00;99.90;;;;;;5070349;28;20053;-81
2021/11/01 02:41:46;;;;;;;1.17;1.17;;;9.00;99.90;;;;;;5051923;28;20072;-80
2021/11/01 02:44:11;;;;;;;1.48;1.38;;;8.90;99.90;;;;;;5063308;28;20041;-81
2021/11/01 02:46:39;;;;;;;1.67;1.13;;;8.90;99.90;;;;;;5065478;28;20039;-83
2021/11/01 02:49:06;;;;;;;2.50;1.42;;;8.90;99.90;;;;;;5062585;28;20115;-83
2021/11/01 02:51:32;;;;;;;2.33;1.20;;;8.90;99.90;;;;;;5071074;28;20447;-82
2021/11/01 02:53:59;;;;;;;;;;;8.90;99.90;;;;;;5071319;28;20044;-83
2021/11/01 02:56:25;;;;;;;0.70;0.70;;;8.90;99.90;;;;;;5062650;28;19920;-83
2021/11/01 02:58:52;;;;;;;10.05;2.35;;;8.90;99.90;;;;;;5053490;28;20056;-84
2021/11/01 03:01:19;;;;;;;1.20;0.80;;;8.90;99.90;;;;;;5034682;28;20051;-82
2021/11/01 03:03:46;;;;;;;1.48;1.38;;;8.90;99.90;;;;;;5069756;28;20041;-82
2021/11/01 03:06:15;;;;;;;1.42;1.00;;;8.90;99.90;;;;;;5069328;28;20044;-83
2021/11/01 03:08:41;;;;;;;3.05;1.58;;;8.90;99.90;;;;;;5063303;28;20393;-83
2021/11/01 03:11:07;;;;;;;;;;;8.80;99.90;;;;;;5077767;28;20580;-82
2021/11/01 03:13:35;;;;;;;0.80;0.80;;;8.80;99.90;;;;;;5056878;28;20015;-82
2021/11/01 03:16:03;;;;;;;1.60;1.08;;;8.80;99.90;;;;;;5070170;28;20044;-81
2021/11/01 03:18:33;;;;;;;1.77;1.33;;;8.80;99.90;;;;;;5069755;28;20040;-82
2021/11/01 03:21:00;;;;;;;10.05;1.90;;;8.70;99.90;;;;;;5053167;28;20036;-81
2021/11/01 03:23:29;;;;;;;5.88;1.88;;;8.80;99.90;;;;;;5069512;28;20045;-81
2021/11/01 03:25:57;;;;;;;4.38;1.35;;;8.70;99.90;;;;;;5045262;28;20390;-81
2021/11/01 03:28:25;;;;;;;12.90;2.00;;;8.70;99.90;;;;;;5062209;28;20521;-82
2021/11/01 03:30:56;;;;;;;4.32;1.67;;;8.80;99.90;;;;;;5050330;28;20464;-81
2021/11/01 03:33:23;;;;;;;3.05;2.17;;;8.80;99.90;;;;;;5060077;28;20045;-82
2021/11/01 03:35:49;;;;;;;10.77;1.60;;;8.80;99.90;;;;;;5068297;28;20113;-83
2021/11/01 03:38:16;;;;;;;1.10;1.00;;;8.70;99.90;;;;;;5067740;28;20059;-81
2021/11/01 03:40:46;;;;;;;2.40;1.52;;;8.80;99.90;;;;;;5048678;28;20041;-81
2021/11/01 03:43:16;;;;;;;1.38;1.27;;;8.70;99.90;;;;;;5041574;28;20428;-80
2021/11/01 03:45:42;;;;;;;4.00;1.88;;;8.70;99.90;;;;;;5068503;28;20033;-81
2021/11/01 03:48:09;;;;;;;1.40;1.08;;;8.60;99.90;;;;;;5040367;28;20493;-80
2021/11/01 03:50:45;;;;;;;1.60;1.50;;;8.70;99.90;;;;;;5050338;28;20072;-81
2021/11/01 03:53:11;;;;;;;1.33;1.23;;;8.70;99.90;;;;;;5045599;28;20052;-84
2021/11/01 03:55:37;;;;;;;2.90;1.20;;;8.70;99.90;;;;;;5056433;28;20055;-81
2021/11/01 03:58:04;;;;;;;6.53;1.25;;;8.70;99.90;;;;;;5056851;28;20080;-81
2021/11/01 04:00:34;;;;;;;1.70;1.52;;;8.60;99.90;;;;;;5073701;28;20180;-83
2021/11/01 04:03:00;;;;;;;1.35;1.25;;;8.60;99.90;;;;;;5071928;28;20036;-82
2021/11/01 04:05:27;;;;;;;0.70;0.70;;;8.60;99.90;;;;;;5071805;28;20405;-83
2021/11/01 04:07:53;;;;;;;;;;;8.70;99.90;;;;;;5063298;28;20044;-83
2021/11/01 04:10:19;;;;;;;0.98;0.90;;;8.70;99.90;;;;;;5069267;28;20430;-84
2021/11/01 04:12:46;;;;;;;4.90;1.60;;;8.60;99.90;;;;;;5072555;28;20041;-83
2021/11/01 04:15:17;;;;;;;4.68;2.17;;;8.60;99.90;;;;;;5047988;28;20040;-83
2021/11/01 04:17:48;;;;;;;0.90;0.90;;;8.50;99.90;;;;;;5053073;28;20123;-82
2021/11/01 04:22:42;;;;;;;2.00;1.50;;;8.50;99.90;;;;;;5069862;28;20045;-82
2021/11/01 04:25:09;;;;;;;3.53;1.42;;;8.50;99.90;;;;;;5071090;28;20430;-83
2021/11/01 04:27:36;;;;;;;3.58;1.67;;;8.50;99.90;;;;;;5061947;28;20041;-81
2021/11/01 04:30:05;;;;;;;0.90;0.90;;;8.40;99.90;;;;;;5055153;28;20040;-83
2021/11/01 04:32:39;;;;;;;0.68;0.68;;;8.40;99.90;;;;;;5073070;28;20080;-82
2021/11/01 04:37:38;;;;;;;2.88;1.70;;;8.30;99.90;;;;;;5071278;28;20071;-82
2021/11/01 04:53:38;;;;;;;2.78;2.13;;;8.40;99.90;;;;;;5070333;28;20049;-82
2021/11/01 04:56:04;;;;;;;2.28;1.25;;;8.30;99.90;;;;;;5072853;28;20075;-82
2021/11/01 04:58:31;;;;;;;;;;;8.30;99.90;;;;;;5055331;28;20045;-82
2021/11/01 05:00:56;;;;;;;5.32;1.40;;;8.20;99.90;;;;;;5078526;28;20520;-82
2021/11/01 05:03:34;;;;;;;1.20;1.13;;;8.20;99.90;;;;;;5070517;28;20119;-81
2021/11/01 05:06:00;;;;;;;1.48;1.38;;;8.20;99.90;;;;;;5062022;28;20056;-84
2021/11/01 05:08:34;;;;;;;0.80;0.80;;;8.10;99.90;;;;;;5062914;28;20037;-83
2021/11/01 05:11:05;;;;;;;1.45;1.35;;;8.20;99.90;;;;;;5050707;28;20041;-82
2021/11/01 05:13:33;;;;;;;1.63;1.55;;;8.20;99.90;;;;;;5058271;28;20040;-81
2021/11/01 05:16:09;;;;;;;1.58;1.05;;;8.20;99.90;;;;;;5063181;28;20486;-83
2021/11/01 05:18:44;;;;;;;;;;;8.20;99.90;;;;;;5067762;28;20033;-83
2021/11/01 05:21:30;;;;;;;0.70;0.70;;;8.20;99.90;;;;;;5068060;28;19966;-81
2021/11/01 05:24:05;;;;;;;1.45;1.35;;;8.20;99.90;;;;;;5073038;28;20390;-81
2021/11/01 05:27:19;;;;;;;3.03;1.55;;;8.70;99.90;;;;;;5068058;28;20045;-83
2021/11/01 05:29:24;;;;;;;0.80;0.80;;;8.10;99.90;;;;;;5047882;28;20090;-80
2021/11/01 05:32:25;;;;;;;0.85;0.82;;;8.10;99.90;;;;;;5054747;28;20041;-83
2021/11/01 05:34:41;;;;;;;2.95;1.05;;;8.10;99.90;;;;;;5067767;28;20040;-83
2021/11/01 05:37:07;;;;;;;0.80;0.80;;;8.10;99.90;;;;;;5076629;28;20046;-79
2021/11/01 05:39:34;;;;;;;1.90;1.38;;;8.30;99.90;;;;;;5068324;28;20049;-81
2021/11/01 05:42:01;;;;;;;3.70;1.65;;;8.30;99.90;;;;;;5070650;28;20043;-83
2021/11/01 05:44:27;;;;;;;10.82;2.38;;;8.10;99.90;;;;;;5067327;28;20119;-82
2021/11/01 05:46:53;;;;;;;2.13;1.58;;;8.10;99.90;;;;;;5072804;28;20128;-82
2021/11/01 05:49:21;;;;;;;4.28;1.70;;;8.10;99.90;;;;;;5069603;28;20103;-79
2021/11/01 05:51:48;;;;;;;0.85;0.85;;;8.00;99.90;;;;;;5069637;28;20056;-81
2021/11/01 05:54:18;;;;;;;0.88;0.88;;;8.10;99.90;;;;;;5068889;28;20076;-81
2021/11/01 06:07:26;;;;;;;1.77;1.55;;;7.90;99.90;;;;;;5054256;28;20047;-82
2021/11/01 06:15:22;;;;;;;3.50;1.50;;;7.90;99.90;;;;;;5077734;28;20527;-81
2021/11/01 06:17:48;;;;;;;2.38;1.65;;;7.90;99.90;;;;;;5051891;28;20051;-84
2021/11/01 06:20:14;;;;;;;0.98;0.98;;;7.90;99.90;;;;;;5063398;28;20040;-83
2021/11/01 06:22:41;;;;;;;0.82;0.80;;;8.00;99.90;;;;;;5076393;28;20089;-81
2021/11/01 06:25:09;;;;;;;1.92;1.15;;;8.00;99.90;;;;;;5071866;28;20398;-81
2021/11/01 06:27:35;;;;;;;1.08;1.02;;;8.00;99.90;;;;;;5075474;28;20139;-80
2021/11/01 06:51:18;;;;;;;0.68;0.68;;;7.90;99.90;;;;;;5054072;28;20120;-82
2021/11/01 06:54:36;;;;;;;4.00;1.63;;;7.90;99.90;;;;;;5057735;28;20059;-80
2021/11/01 07:15:46;;;;;;;2.75;1.55;;;8.30;99.90;;;;;;5068770;28;20044;-82
2021/11/01 07:18:17;;;;;;;0.80;0.70;;;8.40;99.90;;;;;;5048970;28;20040;-79
2021/11/01 08:23:16;;;;;;;1.25;1.15;;;9.30;99.90;;;;;;5063398;28;20053;-80
2021/11/01 08:28:57;;;;;;;1.42;1.33;;;9.30;99.90;;;;;;4959906;28;20580;-81
2021/11/01 08:34:51;;;;;;;1.42;1.33;;;9.40;99.90;;;;;;5059026;28;20513;-82
2021/11/01 08:42:32;;;;;;;1.77;1.30;;;9.50;99.90;;;;;;5065634;28;20044;-81
2021/11/01 09:01:35;;;;;;;2.28;1.60;;;9.80;99.90;;;;;;5052168;28;20509;-82
2021/11/01 09:20:21;;;;;;;3.33;1.20;;;10.30;99.90;;;;;;5052563;28;20044;-83
2021/11/01 09:28:09;;;;;;;1.73;1.38;;;10.40;99.90;;;;;;5080691;28;20057;-81
2021/11/01 09:36:15;;;;;;;4.18;1.58;;;10.60;99.90;;;;;;5067038;28;20055;-81
2021/11/01 09:41:10;;;;;;;4.32;2.08;;;10.70;99.90;;;;;;5064209;28;20048;-80
2021/11/01 09:43:37;;;;;;;1.17;1.05;;;10.70;99.90;;;;;;5052013;28;20123;-80
2021/11/01 09:46:10;;;;;;;4.65;1.60;;;10.60;99.90;;;;;;5050660;28;20148;-81
2021/11/01 09:48:38;;;;;;;1.48;1.33;;;10.50;99.90;;;;;;5030200;28;20053;-82
2021/11/01 09:51:04;;;;;;;1.40;1.30;;;10.60;99.90;;;;;;5059987;28;20050;-80
2021/11/01 09:53:39;;;;;;;3.78;2.30;;;10.50;99.90;;;;;;5063316;28;20044;-81
2021/11/01 09:59:14;;;;;;;3.13;1.33;;;10.60;99.90;;;;;;5046639;28;20369;-82
2021/11/01 10:01:49;;;;;;;1.08;1.02;;;10.70;99.90;;;;;;5040365;28;20052;-81
2021/11/01 10:04:25;;;;;;;4.07;1.60;;;10.80;99.90;;;;;;5033389;28;20048;-82
2021/11/01 10:07:19;;;;;;;1.98;1.58;;;10.80;99.90;;;;;;5065199;28;20097;-82
2021/11/01 10:09:53;;;;;;;1.35;1.20;;;10.80;99.90;;;;;;5062719;28;20048;-82
2021/11/01 10:12:20;;;;;;;2.20;1.30;;;10.90;99.90;;;;;;5050472;28;20040;-81
2021/11/01 10:15:00;;;;;;;2.05;1.65;;;10.90;99.90;;;;;;5047735;28;20044;-83
2021/11/01 10:17:36;;;;;;;4.30;1.80;;;11.00;99.90;;;;;;5049627;28;20041;-81
2021/11/01 10:20:09;;;;;;;4.80;1.65;;;11.00;99.90;;;;;;5025809;28;20058;-82
2021/11/01 10:22:38;;;;;;;1.60;1.10;;;11.10;99.90;;;;;;5081897;28;20397;-84
2021/11/01 10:25:07;;;;;;;1.23;1.05;;;11.20;99.90;;;;;;5060456;28;20079;-82
2021/11/01 10:27:38;;;;;;;1.83;1.40;;;11.20;99.90;;;;;;5064166;28;20059;-81
2021/11/01 10:30:13;;;;;;;1.10;1.00;;;11.20;99.90;;;;;;5045320;28;20466;-80
2021/11/01 10:32:48;;;;;;;1.23;1.10;;;11.20;99.90;;;;;;5052715;28;20051;-81
2021/11/01 10:35:40;;;;;;;2.30;1.13;;;11.20;99.90;;;;;;5079087;28;20398;-84
2021/11/01 10:38:22;;;;;;;3.95;1.60;;;11.30;99.90;;;;;;5060026;28;20094;-80
2021/11/01 11:14:18;;;;;;;5.93;1.48;;;11.90;99.90;;;;;;5083119;28;20060;-82
2021/11/01 11:48:10;;;;;;;1.95;1.40;;;12.30;99.90;;;;;;5056195;28;20498;-82
2021/11/01 11:50:36;;;;;;;6.03;2.30;;;12.20;99.90;;;;;;5063996;28;20051;-82
2021/11/01 11:53:23;;;;;;;1.00;0.98;;;12.20;99.90;;;;;;5060681;28;20120;-82
2021/11/01 11:56:09;;;;;;;1.40;1.30;;;12.20;99.90;;;;;;5054155;28;20045;-83
2021/11/01 11:58:43;;;;;;;1.30;1.20;;;12.20;99.90;;;;;;5055543;28;20337;-81
2021/11/01 12:01:43;;;;;;;3.78;0.95;;;12.30;99.90;;;;;;5060165;28;20041;-83
2021/11/01 12:04:23;;;;;;;2.47;1.38;;;12.40;99.90;;;;;;5052741;28;20482;-80
2021/11/01 12:07:02;;;;;;;1.42;1.02;;;12.30;99.90;;;;;;5066306;28;20041;-83
2021/11/01 12:09:41;;;;;;;0.77;0.77;;;12.30;99.90;;;;;;5058853;28;20049;-82
2021/11/01 12:12:28;;;;;;;1.67;1.13;;;12.30;99.90;;;;;;5063450;28;20466;-82
2021/11/01 12:17:32;;;;;;;1.58;1.17;;;12.40;99.90;;;;;;5050949;28;20482;-82
2021/11/01 12:20:08;;;;;;;1.23;0.80;;;12.40;99.90;;;;;;5065445;28;20056;-81
2021/11/01 12:22:36;;;;;;;0.80;0.80;;;12.40;99.90;;;;;;5069109;28;20040;-82
2021/11/01 12:25:08;;;;;;;1.40;1.30;;;12.40;99.90;;;;;;5078585;28;20037;-82
2021/11/01 12:27:36;;;;;;;0.80;0.75;;;12.40;99.90;;;;;;5079725;28;20040;-81
2021/11/01 12:30:07;;;;;;;0.65;0.65;;;12.50;99.90;;;;;;5059734;28;20040;-82
2021/11/01 12:32:39;;;;;;;1.50;1.13;;;12.60;99.90;;;;;;5062925;28;20081;-83
2021/11/01 12:35:22;;;;;;;3.55;1.40;;;12.60;99.90;;;;;;5068702;28;20532;-82
2021/11/01 12:38:10;;;;;;;1.02;0.90;;;12.70;99.90;;;;;;5060365;28;20068;-82
2021/11/01 12:40:51;;;;;;;0.70;0.70;;;12.70;99.90;;;;;;5052362;28;20473;-82
2021/11/01 12:59:48;;;;;;;0.93;0.85;;;12.90;99.90;;;;;;5059978;28;20082;-82
2021/11/01 13:02:30;;;;;;;1.40;0.80;;;12.90;99.90;;;;;;5065562;28;20525;-81
2021/11/01 13:05:00;;;;;;;0.98;0.73;;;12.90;99.90;;;;;;5062068;28;20048;-81
2021/11/01 13:08:15;;;;;;;0.60;0.60;;;12.90;99.90;;;;;;5072160;28;20135;-83
2021/11/01 13:18:44;;;;;;;0.82;0.80;;;13.00;99.90;;;;;;5066631;28;20052;-82
2021/11/01 13:21:15;;;;;;;0.93;0.93;;;13.10;99.90;;;;;;5034051;28;20052;-82
2021/11/01 13:24:00;;;;;;;1.00;0.90;;;13.10;99.90;;;;;;5065927;28;20100;-80
2021/11/01 13:40:09;;;;;;;0.70;0.70;;;15.00;99.90;;;;;;5050549;28;20493;-83
2021/11/01 13:42:36;;;;;;;2.08;1.13;;;15.30;99.90;;;;;;5051642;28;20444;-81
2021/11/01 13:45:14;;;;;;;1.45;1.20;;;15.40;99.90;;;;;;5074314;28;20040;-81
2021/11/01 13:47:46;;;;;;;0.95;0.90;;;15.50;99.90;;;;;;5062246;28;20533;-83
2021/11/01 13:50:13;;;;;;;1.65;1.08;;;15.70;99.90;;;;;;5067230;28;20040;-82
2021/11/01 13:52:41;;;;;;;0.65;0.65;;;15.90;99.90;;;;;;5064968;28;20139;-83
2021/11/01 13:58:12;;;;;;;1.48;0.75;;;16.40;99.90;;;;;;5057406;28;20204;-82
2021/11/01 14:00:47;;;;;;;2.25;1.00;;;16.30;99.90;;;;;;5057978;28;20498;-81
2021/11/01 14:14:08;;;;;;;1.00;0.80;;;15.30;99.90;;;;;;5070991;28;20565;-82
2021/11/01 14:19:19;;;;;;;1.60;0.60;;;15.30;99.90;;;;;;5069325;28;20036;-82
2021/11/01 15:18:33;;;;;;;1.45;1.13;;;13.20;99.90;;;;;;5066400;28;20486;-81
2021/11/01 15:28:52;;;;;;;5.72;1.20;;;;;;;;;;5064549;28;20075;-82
2021/11/01 16:20:03;;;;;;;0.85;0.82;;;10.10;99.90;;;;;;5068252;28;20103;-81
2021/11/01 16:22:29;;;;;;;1.65;1.30;;;10.10;99.90;;;;;;5069770;28;20091;-81
2021/11/01 16:24:56;;;;;;;2.25;2.00;;;10.00;99.90;;;;;;5048830;28;20041;-82
2021/11/01 16:27:23;;;;;;;0.80;0.80;;;9.90;99.90;;;;;;5069048;28;20040;-81
2021/11/01 16:30:02;;;;;;;1.10;1.00;;;9.80;99.90;;;;;;5065191;28;20087;-80
2021/11/01 16:32:42;;;;;;;1.02;1.00;;;9.70;99.90;;;;;;5066285;28;20648;-81
2021/11/01 16:35:09;;;;;;;1.15;0.98;;;9.60;99.90;;;;;;5066163;28;20131;-82
2021/11/01 16:40:06;;;;;;;1.55;1.27;;;9.50;99.90;;;;;;5059334;28;20124;-81
2021/11/01 16:42:35;;;;;;;0.90;0.90;;;9.50;99.90;;;;;;5064323;28;20059;-84
2021/11/01 16:45:16;;;;;;;1.00;0.98;;;9.40;99.90;;;;;;5034101;28;20115;-83
2021/11/01 16:47:43;;;;;;;1.13;0.98;;;9.50;99.90;;;;;;5054392;28;20033;-82
2021/11/01 16:50:11;;;;;;;1.73;1.15;;;9.50;99.90;;;;;;5060658;28;20185;-83
2021/11/01 16:52:38;;;;;;;0.70;0.70;;;9.50;99.90;;;;;;5045255;28;20044;-85
2021/11/01 16:55:11;;;;;;;1.67;0.75;;;9.50;99.90;;;;;;5067464;28;20081;-85
2021/11/01 16:57:44;;;;;;;0.75;0.75;;;9.50;99.90;;;;;;5056890;28;20094;-82
2021/11/01 17:00:34;;;;;;;2.40;1.20;;;9.50;99.90;;;;;;5072589;28;20048;-84
2021/11/01 17:11:04;;;;;;;1.85;1.17;;;9.50;99.90;;;;;;5059759;28;20059;-86
2021/11/01 17:24:41;;;;;;;6.35;1.42;;;9.40;99.90;;;;;;5063651;28;20131;-87
2021/11/01 18:37:16;;;;;;;1.92;1.55;;;8.50;99.90;;;;;;5066972;28;20052;-86
2021/11/01 18:39:25;;;;;;;1.33;1.02;;;8.50;99.90;;;;;;5063531;28;20048;-88
2021/11/01 18:53:07;;;;;;;2.08;1.70;;;8.30;99.90;;;;;;5067587;28;20055;-86
2021/11/01 18:55:36;;;;;;;1.30;1.17;;;8.30;99.90;;;;;;5068985;28;20063;-89
2021/11/01 18:58:03;;;;;;;5.07;1.33;;;8.30;99.90;;;;;;5061611;28;20444;-89
2021/11/01 19:00:41;;;;;;;7.70;1.55;;;8.30;99.90;;;;;;5067829;28;20041;-87
2021/11/01 19:03:08;;;;;;;1.25;1.05;;;8.40;99.90;;;;;;5068284;28;20047;-86
2021/11/01 19:08:38;;;;;;;2.83;1.08;;;8.40;99.90;;;;;;5066300;28;20048;-86
2021/11/01 21:24:36;;;;;;;4.82;1.27;;;7.70;99.90;;;;;;5068801;28;20053;-87
2021/11/01 21:27:03;;;;;;;1.45;1.35;;;7.60;99.90;;;;;;5066058;28;20055;-87
2021/11/01 21:29:32;;;;;;;0.77;0.77;;;7.60;99.90;;;;;;5067830;28;20117;-87
2021/11/01 21:31:58;;;;;;;2.33;1.25;;;7.60;99.90;;;;;;5067990;28;20056;-87
2021/11/01 21:34:33;;;;;;;2.90;1.20;;;7.60;99.90;;;;;;5052036;28;20489;-87
2021/11/01 21:37:00;;;;;;;1.55;1.08;;;7.60;99.90;;;;;;5067739;28;20185;-86
2021/11/01 21:39:26;;;;;;;0.80;0.80;;;7.50;99.90;;;;;;5068555;28;20127;-87
2021/11/01 21:41:52;;;;;;;1.00;1.00;;;7.40;99.90;;;;;;5069564;28;20044;-86
2021/11/01 21:44:19;;;;;;;;;;;7.40;99.90;;;;;;5066674;28;20558;-87
2021/11/01 21:46:45;;;;;;;2.25;0.98;;;7.30;99.90;;;;;;5069806;28;20007;-86
2021/11/01 21:49:11;;;;;;;2.00;1.48;;;7.30;99.90;;;;;;5045838;28;20044;-86
2021/11/01 21:51:41;;;;;;;0.70;0.70;;;7.20;99.90;;;;;;5066462;28;20070;-86
2021/11/01 21:54:21;;;;;;;2.08;1.30;;;7.20;99.90;;;;;;5050314;28;20044;-86
2021/11/01 21:56:51;;;;;;;1.20;1.10;;;7.10;99.90;;;;;;5099494;28;20053;-87
2021/11/01 22:18:15;;;;;;;1.02;1.02;;;7.00;99.90;;;;;;5044764;28;20094;-87
2021/11/01 22:20:45;;;;;;;1.40;1.27;;;7.00;99.90;;;;;;5079999;28;20495;-88
2021/11/01 22:23:16;;;;;;;1.00;0.90;;;7.10;99.90;;;;;;5049890;28;20047;-87
2021/11/01 22:25:49;;;;;;;1.10;1.00;;;7.00;99.90;;;;;;5087323;28;20055;-87
2021/11/01 22:34:14;;;;;;;3.55;1.02;;;6.90;99.90;;;;;;5063187;28;20086;-87
2021/11/01 22:45:26;;;;;;;1.10;1.00;;;6.90;99.90;;;;;;5064422;28;20052;-87
2021/11/01 22:55:55;;;;;;;1.30;1.13;;;6.90;99.90;;;;;;5095510;28;20438;-87
2021/11/01 22:58:23;;;;;;;1.20;1.10;;;6.90;99.90;;;;;;5090074;28;20076;-86
2021/11/01 23:00:57;;;;;;;1.92;1.75;;;6.80;99.90;;;;;;5098077;28;20558;-87
2021/11/01 23:03:51;;;;;;;1.60;1.15;;;6.80;99.90;;;;;;5097864;28;20102;-87
2021/11/01 23:33:44;;;;;;;1.30;1.20;;;6.40;99.90;;;;;;5090896;28;20490;-90
2021/11/01 23:36:11;;;;;;;1.55;1.45;;;6.40;99.90;;;;;;5056823;28;20056;-87
2021/11/01 23:38:37;;;;;;;1.75;1.65;;;6.80;99.90;;;;;;5097910;28;20449;-86
2021/11/01 23:41:03;;;;;;;1.50;1.30;;;6.40;99.90;;;;;;5107317;28;20048;-87
2021/11/01 23:43:29;;;;;;;1.00;1.00;;;6.50;99.90;;;;;;5100890;28;20037;-87
2021/11/01 23:45:55;;;;;;;1.27;1.17;;;6.30;99.90;;;;;;5069454;28;20044;-86
2021/11/01 23:48:21;;;;;;;1.80;1.25;;;6.20;99.90;;;;;;5067550;28;20619;-86
2021/11/01 23:50:49;;;;;;;1.40;1.20;;;6.60;99.90;;;;;;5099496;28;20474;-86
2021/11/01 23:53:34;;;;;;;1.55;1.40;;;6.10;99.90;;;;;;5071394;28;20079;-86
2021/11/01 23:56:00;;;;;;;0.80;0.80;;;6.00;99.90;;;;;;5071673;28;20036;-86
2021/11/01 23:58:26;;;;;;;1.52;1.30;;;6.00;99.90;;;;;;5051519;28;20049;-87
